Helena Regional Airport
KHLN : now visible

Airfield :











YOU CAN JOIN US ON...

 
LOGIN :

Register | Disclaimer

   EN    FR    IT 

 









Legend :    VFR   Marginal VFR   IFR   Intensive IFR   Very Intensive IFR
Visi :
Ceiling :
>= 8 km
>= 3000ft
5 to 8 km
1000 to 3000 ft
1500m to 5 km
500 to 1000 ft
800 to 1500m
200 to 500 ft
< 800m
< 200 ft
Symbols :   Thunderstorms  Fog  Heavy snow  Heavy precipitations  Wind > 20 kt






- Airport Elevation : 3877 ft
- IATA code : HLN


KHLN - Helena Regional

CURRENT METAR :
  • 212253Z 00000KT 10SM CLR 06/M02 A2992 RMK AO2 SLP170 T00611017

EXPIRED METARs :
  • 212153Z 13003KT 10SM CLR 05/M02 A2991 RMK AO2 SLP163 T00501022
  • 212053Z 05003KT 10SM CLR 06/M03 A2991 RMK AO2 SLP162 T00611028 58013
  • 211953Z 00000KT 10SM CLR 04/M03 A2992 RMK AO2 SLP172 T00391028
  • 211853Z 09004KT 10SM CLR 02/M03 A2995 RMK AO2 SLP181 T00221028

TAF KHLN
Valid from the 22 at 00:00 until the 23 at 00:00 UTC


212320Z 2200/2224 VRB05KT P6SM FEW190
FM222000 26012KT P6SM FEW200
KZLC FIR / North America



MET'MAP, your aeronautical weather chart ! - Copyright ORBIFLY December 2007 - Disclaimer

ORBIFLY MET'MAP TEAM :

Programming & Development : Alexandra Zaïnal
Original concept : Baudouin d'Aumeries
Technical & hardware support : Manuel Goepfert
Assistance : Marc-Olivier Méhu




SOURCES & CREDITS :

   NOAA       Earth
Advisory